Aviation Digital Data Service (ADDS)

Output produced by METARs form (1232 UTC 22 March 2019)
found at http://www.aviationweather.gov/metar/data/
 
Forecast for: RJFO (OITA AIRPORT , JP)
Text: TAF RJFO 221106Z 2212/2318 35008KT 9999 FEW030
Forecast period: 1200 UTC 22 March 2019 to 1800 UTC 23 March 2019
Forecast type: FROM: standard forecast or significant change
Winds: from the N (350 degrees) at 9 MPH (8 knots; 4.1 m/s)
Visibility: 6 or more miles 10+ km)
Ceiling: at least 12,000 feet AGL
Clouds: few clouds at 3000 feet AGL
Weather: no significant weather forecast for this period
Text: TEMPO 2303/2309 31015G25KT
Forecast period: 0300 to 0900 UTC 23 March 2019
Forecast type: TEMPORARY: The following changes expected for less than half the time period
Winds: from the NW (310 degrees) at 17 MPH (15 knots; 7.7 m/s)
gusting to 29 MPH (25 knots; 12.9 m/s)
Visibility: missing
Ceiling: unknown
Clouds: missing
Weather: no significant weather forecast for this period